sensor_id;sensor_type;location;lat;lon;timestamp;temperature;humidity
26051;DHT22;13825;53.496;10.020;2023-10-09T00:01:23;11.00;99.90
26051;DHT22;13825;53.496;10.020;2023-10-09T00:03:50;11.10;99.90
26051;DHT22;13825;53.496;10.020;2023-10-09T00:06:19;11.00;99.90
26051;DHT22;13825;53.496;10.020;2023-10-09T00:08:57;10.90;99.90
26051;DHT22;13825;53.496;10.020;2023-10-09T00:11:37;11.00;99.90
26051;DHT22;13825;53.496;10.020;2023-10-09T00:14:07;11.10;99.90
26051;DHT22;13825;53.496;10.020;2023-10-09T00:16:34;11.20;99.90
26051;DHT22;13825;53.496;10.020;2023-10-09T00:19:06;11.20;99.90
26051;DHT22;13825;53.496;10.020;2023-10-09T00:21:43;11.20;99.90
26051;DHT22;13825;53.496;10.020;2023-10-09T00:24:12;11.10;99.90
26051;DHT22;13825;53.496;10.020;2023-10-09T00:26:45;11.10;99.90
26051;DHT22;13825;53.496;10.020;2023-10-09T00:29:16;11.10;99.90
26051;DHT22;13825;53.496;10.020;2023-10-09T00:31:50;11.00;99.90
26051;DHT22;13825;53.496;10.020;2023-10-09T00:34:22;11.00;99.90
26051;DHT22;13825;53.496;10.020;2023-10-09T00:37:04;11.00;99.90
26051;DHT22;13825;53.496;10.020;2023-10-09T00:39:37;11.10;99.90
26051;DHT22;13825;53.496;10.020;2023-10-09T00:42:09;11.00;99.90
26051;DHT22;13825;53.496;10.020;2023-10-09T00:44:39;10.90;99.90
26051;DHT22;13825;53.496;10.020;2023-10-09T00:47:08;11.00;99.90
26051;DHT22;13825;53.496;10.020;2023-10-09T00:49:57;11.00;99.90
26051;DHT22;13825;53.496;10.020;2023-10-09T00:52:31;10.90;99.90
26051;DHT22;13825;53.496;10.020;2023-10-09T00:55:19;10.90;99.90
26051;DHT22;13825;53.496;10.020;2023-10-09T00:57:55;10.90;99.90
26051;DHT22;13825;53.496;10.020;2023-10-09T01:00:25;10.90;99.90
26051;DHT22;13825;53.496;10.020;2023-10-09T01:03:12;10.90;99.90
26051;DHT22;13825;53.496;10.020;2023-10-09T01:05:46;10.90;99.90
26051;DHT22;13825;53.496;10.020;2023-10-09T01:08:18;10.90;99.90
26051;DHT22;13825;53.496;10.020;2023-10-09T01:10:53;10.90;99.90
26051;DHT22;13825;53.496;10.020;2023-10-09T01:13:23;10.90;99.90
26051;DHT22;13825;53.496;10.020;2023-10-09T01:16:05;10.90;99.90
26051;DHT22;13825;53.496;10.020;2023-10-09T01:18:32;10.80;99.90
26051;DHT22;13825;53.496;10.020;2023-10-09T01:21:10;10.70;99.90
26051;DHT22;13825;53.496;10.020;2023-10-09T01:23:40;10.80;99.90
26051;DHT22;13825;53.496;10.020;2023-10-09T01:26:24;10.80;99.90
26051;DHT22;13825;53.496;10.020;2023-10-09T01:29:06;10.80;99.90
26051;DHT22;13825;53.496;10.020;2023-10-09T01:31:36;10.80;99.90
26051;DHT22;13825;53.496;10.020;2023-10-09T01:34:09;10.80;99.90
26051;DHT22;13825;53.496;10.020;2023-10-09T01:36:38;10.70;99.90
26051;DHT22;13825;53.496;10.020;2023-10-09T01:39:08;10.70;99.90
26051;DHT22;13825;53.496;10.020;2023-10-09T01:45:04;10.60;99.90
26051;DHT22;13825;53.496;10.020;2023-10-09T01:48:05;10.50;99.90
26051;DHT22;13825;53.496;10.020;2023-10-09T01:50:33;10.50;99.90
26051;DHT22;13825;53.496;10.020;2023-10-09T01:53:02;10.60;99.90
26051;DHT22;13825;53.496;10.020;2023-10-09T01:55:33;10.60;99.90
26051;DHT22;13825;53.496;10.020;2023-10-09T01:58:12;10.60;99.90
26051;DHT22;13825;53.496;10.020;2023-10-09T02:00:50;10.50;99.90
26051;DHT22;13825;53.496;10.020;2023-10-09T02:03:20;10.50;99.90
26051;DHT22;13825;53.496;10.020;2023-10-09T02:05:57;10.40;99.90
26051;DHT22;13825;53.496;10.020;2023-10-09T02:08:25;10.40;99.90
26051;DHT22;13825;53.496;10.020;2023-10-09T02:11:05;10.40;99.90
26051;DHT22;13825;53.496;10.020;2023-10-09T02:13:40;10.40;99.90
26051;DHT22;13825;53.496;10.020;2023-10-09T02:16:08;10.40;99.90
26051;DHT22;13825;53.496;10.020;2023-10-09T02:18:44;10.20;99.90
26051;DHT22;13825;53.496;10.020;2023-10-09T02:21:19;10.20;99.90
26051;DHT22;13825;53.496;10.020;2023-10-09T02:24:16;10.20;99.90
26051;DHT22;13825;53.496;10.020;2023-10-09T02:26:57;10.20;99.90
26051;DHT22;13825;53.496;10.020;2023-10-09T02:29:33;10.10;99.90
26051;DHT22;13825;53.496;10.020;2023-10-09T02:32:04;10.20;99.90
26051;DHT22;13825;53.496;10.020;2023-10-09T02:34:46;10.20;99.90
26051;DHT22;13825;53.496;10.020;2023-10-09T02:37:16;10.20;99.90
26051;DHT22;13825;53.496;10.020;2023-10-09T02:39:54;10.20;99.90
26051;DHT22;13825;53.496;10.020;2023-10-09T02:42:23;10.20;99.90
26051;DHT22;13825;53.496;10.020;2023-10-09T02:45:23;10.20;99.90
26051;DHT22;13825;53.496;10.020;2023-10-09T02:48:13;10.20;99.90
26051;DHT22;13825;53.496;10.020;2023-10-09T02:50:40;10.20;99.90
26051;DHT22;13825;53.496;10.020;2023-10-09T02:53:10;10.10;99.90
26051;DHT22;13825;53.496;10.020;2023-10-09T02:55:46;10.20;99.90
26051;DHT22;13825;53.496;10.020;2023-10-09T02:58:39;10.20;99.90
26051;DHT22;13825;53.496;10.020;2023-10-09T03:01:10;10.20;99.90
26051;DHT22;13825;53.496;10.020;2023-10-09T03:04:14;10.20;99.90
26051;DHT22;13825;53.496;10.020;2023-10-09T03:06:53;10.20;99.90
26051;DHT22;13825;53.496;10.020;2023-10-09T03:09:23;10.20;99.90
26051;DHT22;13825;53.496;10.020;2023-10-09T03:12:00;10.20;99.90
26051;DHT22;13825;53.496;10.020;2023-10-09T03:14:31;10.10;99.90
26051;DHT22;13825;53.496;10.020;2023-10-09T03:17:01;10.20;99.90
26051;DHT22;13825;53.496;10.020;2023-10-09T03:19:29;10.20;99.90
26051;DHT22;13825;53.496;10.020;2023-10-09T03:21:59;10.20;99.90
26051;DHT22;13825;53.496;10.020;2023-10-09T03:24:27;10.20;99.90
26051;DHT22;13825;53.496;10.020;2023-10-09T03:26:57;10.30;99.90
26051;DHT22;13825;53.496;10.020;2023-10-09T03:29:24;10.20;99.90
26051;DHT22;13825;53.496;10.020;2023-10-09T03:31:57;10.30;99.90
26051;DHT22;13825;53.496;10.020;2023-10-09T03:34:25;10.20;99.90
26051;DHT22;13825;53.496;10.020;2023-10-09T03:37:18;10.20;99.90
26051;DHT22;13825;53.496;10.020;2023-10-09T03:40:14;10.10;99.90
26051;DHT22;13825;53.496;10.020;2023-10-09T03:42:46;10.10;99.90
26051;DHT22;13825;53.496;10.020;2023-10-09T03:45:14;10.10;99.90
26051;DHT22;13825;53.496;10.020;2023-10-09T03:48:16;10.10;99.90
26051;DHT22;13825;53.496;10.020;2023-10-09T03:50:47;10.20;99.90
26051;DHT22;13825;53.496;10.020;2023-10-09T03:53:27;10.10;99.90
26051;DHT22;13825;53.496;10.020;2023-10-09T03:55:58;10.10;99.90
26051;DHT22;13825;53.496;10.020;2023-10-09T03:58:25;10.20;99.90
26051;DHT22;13825;53.496;10.020;2023-10-09T04:00:59;10.20;99.90
26051;DHT22;13825;53.496;10.020;2023-10-09T04:03:27;10.20;99.90
26051;DHT22;13825;53.496;10.020;2023-10-09T04:06:09;10.10;99.90
26051;DHT22;13825;53.496;10.020;2023-10-09T04:08:40;10.20;99.90
26051;DHT22;13825;53.496;10.020;2023-10-09T04:11:13;10.30;99.90
26051;DHT22;13825;53.496;10.020;2023-10-09T04:14:16;10.20;99.90
26051;DHT22;13825;53.496;10.020;2023-10-09T04:16:59;10.10;99.90
26051;DHT22;13825;53.496;10.020;2023-10-09T04:19:33;10.20;99.90
26051;DHT22;13825;53.496;10.020;2023-10-09T04:22:04;10.10;99.90
26051;DHT22;13825;53.496;10.020;2023-10-09T04:25:12;10.10;99.90
26051;DHT22;13825;53.496;10.020;2023-10-09T04:27:53;10.10;99.90
26051;DHT22;13825;53.496;10.020;2023-10-09T04:30:29;10.00;99.90
26051;DHT22;13825;53.496;10.020;2023-10-09T04:33:23;10.00;99.90
26051;DHT22;13825;53.496;10.020;2023-10-09T04:36:08;9.90;99.90
26051;DHT22;13825;53.496;10.020;2023-10-09T04:38:45;9.90;99.90
26051;DHT22;13825;53.496;10.020;2023-10-09T04:41:21;10.00;99.90
26051;DHT22;13825;53.496;10.020;2023-10-09T04:43:53;10.10;99.90
26051;DHT22;13825;53.496;10.020;2023-10-09T04:46:30;10.10;99.90
26051;DHT22;13825;53.496;10.020;2023-10-09T04:49:10;10.10;99.90
26051;DHT22;13825;53.496;10.020;2023-10-09T04:51:54;10.10;99.90
26051;DHT22;13825;53.496;10.020;2023-10-09T04:54:31;10.10;99.90
26051;DHT22;13825;53.496;10.020;2023-10-09T04:57:26;10.10;99.90
26051;DHT22;13825;53.496;10.020;2023-10-09T05:00:05;10.10;99.90
26051;DHT22;13825;53.496;10.020;2023-10-09T05:03:05;10.10;99.90
26051;DHT22;13825;53.496;10.020;2023-10-09T05:05:35;10.10;99.90
26051;DHT22;13825;53.496;10.020;2023-10-09T05:08:18;10.10;99.90
26051;DHT22;13825;53.496;10.020;2023-10-09T05:10:50;10.10;99.90
26051;DHT22;13825;53.496;10.020;2023-10-09T05:13:48;10.00;99.90
26051;DHT22;13825;53.496;10.020;2023-10-09T05:20:11;10.00;99.90
26051;DHT22;13825;53.496;10.020;2023-10-09T05:23:01;9.90;99.90
26051;DHT22;13825;53.496;10.020;2023-10-09T05:25:56;9.90;99.90
26051;DHT22;13825;53.496;10.020;2023-10-09T05:28:55;9.90;99.90
26051;DHT22;13825;53.496;10.020;2023-10-09T05:31:23;9.90;99.90
26051;DHT22;13825;53.496;10.020;2023-10-09T05:34:21;9.90;99.90
26051;DHT22;13825;53.496;10.020;2023-10-09T05:36:54;9.90;99.90
26051;DHT22;13825;53.496;10.020;2023-10-09T05:39:36;9.90;99.90
26051;DHT22;13825;53.496;10.020;2023-10-09T05:42:08;9.80;99.90
26051;DHT22;13825;53.496;10.020;2023-10-09T05:44:56;9.90;99.90
26051;DHT22;13825;53.496;10.020;2023-10-09T05:47:37;9.90;99.90
26051;DHT22;13825;53.496;10.020;2023-10-09T05:50:13;9.90;99.90
26051;DHT22;13825;53.496;10.020;2023-10-09T05:52:58;9.90;99.90
26051;DHT22;13825;53.496;10.020;2023-10-09T05:55:33;9.80;99.90
26051;DHT22;13825;53.496;10.020;2023-10-09T05:58:35;9.80;99.90
26051;DHT22;13825;53.496;10.020;2023-10-09T06:01:19;9.80;99.90
26051;DHT22;13825;53.496;10.020;2023-10-09T06:03:49;9.80;99.90
26051;DHT22;13825;53.496;10.020;2023-10-09T06:08:47;9.80;99.90
26051;DHT22;13825;53.496;10.020;2023-10-09T06:11:34;9.80;99.90
26051;DHT22;13825;53.496;10.020;2023-10-09T06:14:09;9.80;99.90
26051;DHT22;13825;53.496;10.020;2023-10-09T06:16:41;9.90;99.90
26051;DHT22;13825;53.496;10.020;2023-10-09T06:19:08;10.00;99.90
26051;DHT22;13825;53.496;10.020;2023-10-09T06:21:37;9.90;99.90
26051;DHT22;13825;53.496;10.020;2023-10-09T06:24:25;9.90;99.90
26051;DHT22;13825;53.496;10.020;2023-10-09T06:26:59;9.80;99.90
26051;DHT22;13825;53.496;10.020;2023-10-09T06:29:52;9.80;99.90
26051;DHT22;13825;53.496;10.020;2023-10-09T06:32:40;9.70;99.90
26051;DHT22;13825;53.496;10.020;2023-10-09T06:35:16;9.70;99.90
26051;DHT22;13825;53.496;10.020;2023-10-09T06:37:45;9.70;99.90
26051;DHT22;13825;53.496;10.020;2023-10-09T06:40:30;9.70;99.90
26051;DHT22;13825;53.496;10.020;2023-10-09T06:43:15;9.80;99.90
26051;DHT22;13825;53.496;10.020;2023-10-09T06:45:44;9.80;99.90
26051;DHT22;13825;53.496;10.020;2023-10-09T06:48:12;9.90;99.90
26051;DHT22;13825;53.496;10.020;2023-10-09T06:50:56;9.90;99.90
26051;DHT22;13825;53.496;10.020;2023-10-09T06:53:30;10.00;99.90
26051;DHT22;13825;53.496;10.020;2023-10-09T06:56:10;10.00;99.90
26051;DHT22;13825;53.496;10.020;2023-10-09T06:58:50;10.00;99.90
26051;DHT22;13825;53.496;10.020;2023-10-09T07:01:21;10.00;99.90
26051;DHT22;13825;53.496;10.020;2023-10-09T07:04:05;10.00;99.90
26051;DHT22;13825;53.496;10.020;2023-10-09T07:06:44;9.90;99.90
26051;DHT22;13825;53.496;10.020;2023-10-09T07:09:18;10.00;99.90
26051;DHT22;13825;53.496;10.020;2023-10-09T07:11:46;10.00;99.90
26051;DHT22;13825;53.496;10.020;2023-10-09T07:14:29;10.00;99.90
26051;DHT22;13825;53.496;10.020;2023-10-09T07:17:19;10.00;99.90
26051;DHT22;13825;53.496;10.020;2023-10-09T07:19:53;9.90;99.90
26051;DHT22;13825;53.496;10.020;2023-10-09T07:22:35;9.90;99.90
26051;DHT22;13825;53.496;10.020;2023-10-09T07:25:19;9.90;99.90
26051;DHT22;13825;53.496;10.020;2023-10-09T07:28:07;10.00;99.90
26051;DHT22;13825;53.496;10.020;2023-10-09T07:30:55;10.00;99.90
26051;DHT22;13825;53.496;10.020;2023-10-09T07:33:25;10.00;99.90
26051;DHT22;13825;53.496;10.020;2023-10-09T07:36:17;10.10;99.90
26051;DHT22;13825;53.496;10.020;2023-10-09T07:38:56;10.00;99.90
26051;DHT22;13825;53.496;10.020;2023-10-09T07:41:31;10.10;99.90
26051;DHT22;13825;53.496;10.020;2023-10-09T07:44:06;10.20;99.90
26051;DHT22;13825;53.496;10.020;2023-10-09T07:47:02;10.20;99.90
26051;DHT22;13825;53.496;10.020;2023-10-09T07:49:48;10.20;99.90
26051;DHT22;13825;53.496;10.020;2023-10-09T07:52:20;10.20;99.90
26051;DHT22;13825;53.496;10.020;2023-10-09T07:55:01;10.20;99.90
26051;DHT22;13825;53.496;10.020;2023-10-09T07:57:31;10.30;99.90
26051;DHT22;13825;53.496;10.020;2023-10-09T08:00:06;10.30;99.90
26051;DHT22;13825;53.496;10.020;2023-10-09T08:03:00;10.30;99.90
26051;DHT22;13825;53.496;10.020;2023-10-09T08:05:30;10.40;99.90
26051;DHT22;13825;53.496;10.020;2023-10-09T08:08:03;10.50;99.90
26051;DHT22;13825;53.496;10.020;2023-10-09T08:11:07;10.60;99.90
26051;DHT22;13825;53.496;10.020;2023-10-09T08:14:00;10.60;99.90
26051;DHT22;13825;53.496;10.020;2023-10-09T08:16:28;10.80;99.90
26051;DHT22;13825;53.496;10.020;2023-10-09T08:19:02;10.90;99.90
26051;DHT22;13825;53.496;10.020;2023-10-09T08:21:48;11.00;99.90
26051;DHT22;13825;53.496;10.020;2023-10-09T08:24:42;11.10;99.90
26051;DHT22;13825;53.496;10.020;2023-10-09T08:27:22;11.20;99.90
26051;DHT22;13825;53.496;10.020;2023-10-09T08:30:13;11.20;99.90
26051;DHT22;13825;53.496;10.020;2023-10-09T08:32:54;11.30;99.90
26051;DHT22;13825;53.496;10.020;2023-10-09T08:35:28;11.30;99.90
26051;DHT22;13825;53.496;10.020;2023-10-09T08:37:57;11.20;99.90
26051;DHT22;13825;53.496;10.020;2023-10-09T08:40:32;11.20;99.90
26051;DHT22;13825;53.496;10.020;2023-10-09T08:43:09;11.20;99.90
26051;DHT22;13825;53.496;10.020;2023-10-09T08:45:38;11.20;99.90
26051;DHT22;13825;53.496;10.020;2023-10-09T08:48:07;11.10;99.90
26051;DHT22;13825;53.496;10.020;2023-10-09T08:50:40;10.90;99.90
26051;DHT22;13825;53.496;10.020;2023-10-09T08:53:12;10.90;99.90
26051;DHT22;13825;53.496;10.020;2023-10-09T08:55:40;11.00;99.90
26051;DHT22;13825;53.496;10.020;2023-10-09T08:58:08;10.90;99.90
26051;DHT22;13825;53.496;10.020;2023-10-09T09:00:44;11.00;99.90
26051;DHT22;13825;53.496;10.020;2023-10-09T09:03:12;11.10;99.90
26051;DHT22;13825;53.496;10.020;2023-10-09T09:05:41;10.90;99.90
26051;DHT22;13825;53.496;10.020;2023-10-09T09:08:22;11.00;99.90
26051;DHT22;13825;53.496;10.020;2023-10-09T09:10:57;11.10;99.90
26051;DHT22;13825;53.496;10.020;2023-10-09T09:13:37;11.20;99.90
26051;DHT22;13825;53.496;10.020;2023-10-09T09:16:13;11.30;99.90
26051;DHT22;13825;53.496;10.020;2023-10-09T09:18:50;11.20;99.90
26051;DHT22;13825;53.496;10.020;2023-10-09T09:21:22;11.30;99.90
26051;DHT22;13825;53.496;10.020;2023-10-09T09:23:59;11.30;99.90
26051;DHT22;13825;53.496;10.020;2023-10-09T09:26:36;11.30;99.90
26051;DHT22;13825;53.496;10.020;2023-10-09T09:29:05;11.30;99.90
26051;DHT22;13825;53.496;10.020;2023-10-09T09:31:33;11.30;99.90
26051;DHT22;13825;53.496;10.020;2023-10-09T09:34:04;11.40;99.90
26051;DHT22;13825;53.496;10.020;2023-10-09T09:36:52;11.40;99.90
26051;DHT22;13825;53.496;10.020;2023-10-09T09:39:24;11.40;99.90
26051;DHT22;13825;53.496;10.020;2023-10-09T09:41:55;11.40;99.90
26051;DHT22;13825;53.496;10.020;2023-10-09T09:44:30;11.50;99.90
26051;DHT22;13825;53.496;10.020;2023-10-09T09:46:59;11.50;99.90
26051;DHT22;13825;53.496;10.020;2023-10-09T09:49:27;11.50;99.90
26051;DHT22;13825;53.496;10.020;2023-10-09T09:52:00;11.60;99.90
26051;DHT22;13825;53.496;10.020;2023-10-09T09:54:37;11.50;99.90
26051;DHT22;13825;53.496;10.020;2023-10-09T09:57:06;11.40;99.90
26051;DHT22;13825;53.496;10.020;2023-10-09T09:59:38;11.40;99.90
26051;DHT22;13825;53.496;10.020;2023-10-09T10:02:20;11.40;99.90
26051;DHT22;13825;53.496;10.020;2023-10-09T10:04:54;11.60;99.90
26051;DHT22;13825;53.496;10.020;2023-10-09T10:07:23;11.60;99.90
26051;DHT22;13825;53.496;10.020;2023-10-09T10:09:53;11.70;99.90
26051;DHT22;13825;53.496;10.020;2023-10-09T10:12:51;11.60;99.90
26051;DHT22;13825;53.496;10.020;2023-10-09T10:18:22;11.70;99.90
26051;DHT22;13825;53.496;10.020;2023-10-09T10:21:11;11.80;99.90
26051;DHT22;13825;53.496;10.020;2023-10-09T10:23:42;11.90;99.90
26051;DHT22;13825;53.496;10.020;2023-10-09T10:26:20;11.90;99.90
26051;DHT22;13825;53.496;10.020;2023-10-09T10:29:13;11.90;99.90
26051;DHT22;13825;53.496;10.020;2023-10-09T10:31:55;11.90;99.90
26051;DHT22;13825;53.496;10.020;2023-10-09T10:34:24;11.80;99.90
26051;DHT22;13825;53.496;10.020;2023-10-09T10:36:51;11.80;99.90
26051;DHT22;13825;53.496;10.020;2023-10-09T10:39:25;11.80;99.90
26051;DHT22;13825;53.496;10.020;2023-10-09T10:42:09;11.80;99.90
26051;DHT22;13825;53.496;10.020;2023-10-09T10:44:41;11.80;99.90
26051;DHT22;13825;53.496;10.020;2023-10-09T10:47:12;12.00;99.90
26051;DHT22;13825;53.496;10.020;2023-10-09T10:49:51;12.00;99.90
26051;DHT22;13825;53.496;10.020;2023-10-09T10:52:24;12.10;99.90
26051;DHT22;13825;53.496;10.020;2023-10-09T10:55:11;12.30;99.90
26051;DHT22;13825;53.496;10.020;2023-10-09T10:58:16;12.50;99.90
26051;DHT22;13825;53.496;10.020;2023-10-09T11:00:53;12.50;99.90
26051;DHT22;13825;53.496;10.020;2023-10-09T11:03:45;12.60;99.90
26051;DHT22;13825;53.496;10.020;2023-10-09T11:06:25;12.60;99.90
26051;DHT22;13825;53.496;10.020;2023-10-09T11:09:02;12.60;99.90
26051;DHT22;13825;53.496;10.020;2023-10-09T11:11:36;12.60;99.90
26051;DHT22;13825;53.496;10.020;2023-10-09T11:14:14;12.70;99.90
26051;DHT22;13825;53.496;10.020;2023-10-09T11:16:41;12.70;99.90
26051;DHT22;13825;53.496;10.020;2023-10-09T11:19:19;12.70;99.90
26051;DHT22;13825;53.496;10.020;2023-10-09T11:21:58;12.60;99.90
26051;DHT22;13825;53.496;10.020;2023-10-09T11:24:47;12.50;99.90
26051;DHT22;13825;53.496;10.020;2023-10-09T11:27:26;12.60;99.90
26051;DHT22;13825;53.496;10.020;2023-10-09T11:29:59;12.60;99.90
26051;DHT22;13825;53.496;10.020;2023-10-09T11:32:31;12.70;99.90
26051;DHT22;13825;53.496;10.020;2023-10-09T11:35:10;12.80;99.90
26051;DHT22;13825;53.496;10.020;2023-10-09T11:37:37;12.80;99.90
26051;DHT22;13825;53.496;10.020;2023-10-09T11:40:32;12.90;99.90
26051;DHT22;13825;53.496;10.020;2023-10-09T11:43:13;12.80;99.90
26051;DHT22;13825;53.496;10.020;2023-10-09T11:45:42;12.80;99.90
26051;DHT22;13825;53.496;10.020;2023-10-09T11:48:21;12.90;99.90
26051;DHT22;13825;53.496;10.020;2023-10-09T11:51:00;12.80;99.90
26051;DHT22;13825;53.496;10.020;2023-10-09T11:53:45;12.70;99.90
26051;DHT22;13825;53.496;10.020;2023-10-09T11:56:15;12.80;99.90
26051;DHT22;13825;53.496;10.020;2023-10-09T11:58:47;12.80;99.90
26051;DHT22;13825;53.496;10.020;2023-10-09T12:01:17;12.80;99.90
26051;DHT22;13825;53.496;10.020;2023-10-09T12:03:46;12.70;99.90
26051;DHT22;13825;53.496;10.020;2023-10-09T12:06:16;12.80;99.90
26051;DHT22;13825;53.496;10.020;2023-10-09T12:08:45;12.60;99.90
26051;DHT22;13825;53.496;10.020;2023-10-09T12:11:13;12.50;99.90
26051;DHT22;13825;53.496;10.020;2023-10-09T12:13:41;12.60;99.90
26051;DHT22;13825;53.496;10.020;2023-10-09T12:16:09;12.70;99.90
26051;DHT22;13825;53.496;10.020;2023-10-09T12:18:37;12.80;99.90
26051;DHT22;13825;53.496;10.020;2023-10-09T12:21:04;12.90;99.90
26051;DHT22;13825;53.496;10.020;2023-10-09T12:23:32;13.10;99.90
26051;DHT22;13825;53.496;10.020;2023-10-09T12:26:01;12.90;99.90
26051;DHT22;13825;53.496;10.020;2023-10-09T12:28:29;12.90;99.90
26051;DHT22;13825;53.496;10.020;2023-10-09T12:30:59;12.90;99.90
26051;DHT22;13825;53.496;10.020;2023-10-09T12:33:28;12.90;99.90
26051;DHT22;13825;53.496;10.020;2023-10-09T12:35:58;13.00;99.90
26051;DHT22;13825;53.496;10.020;2023-10-09T12:38:27;12.90;99.90
26051;DHT22;13825;53.496;10.020;2023-10-09T12:41:01;12.80;99.90
26051;DHT22;13825;53.496;10.020;2023-10-09T12:43:34;12.90;99.90
26051;DHT22;13825;53.496;10.020;2023-10-09T12:46:06;12.90;99.90
26051;DHT22;13825;53.496;10.020;2023-10-09T12:48:33;12.80;99.90
26051;DHT22;13825;53.496;10.020;2023-10-09T12:51:03;12.90;99.90
26051;DHT22;13825;53.496;10.020;2023-10-09T12:53:32;12.90;99.90
26051;DHT22;13825;53.496;10.020;2023-10-09T12:55:59;13.00;99.90
26051;DHT22;13825;53.496;10.020;2023-10-09T12:58:26;13.00;99.90
26051;DHT22;13825;53.496;10.020;2023-10-09T13:00:55;13.00;99.90
26051;DHT22;13825;53.496;10.020;2023-10-09T13:03:34;13.00;99.90
26051;DHT22;13825;53.496;10.020;2023-10-09T13:06:05;13.00;99.90
26051;DHT22;13825;53.496;10.020;2023-10-09T13:08:36;13.00;99.90
26051;DHT22;13825;53.496;10.020;2023-10-09T13:11:08;12.90;99.90
26051;DHT22;13825;53.496;10.020;2023-10-09T13:13:38;12.90;99.90
26051;DHT22;13825;53.496;10.020;2023-10-09T13:16:10;13.10;99.90
26051;DHT22;13825;53.496;10.020;2023-10-09T13:18:49;13.10;99.90
26051;DHT22;13825;53.496;10.020;2023-10-09T13:21:21;13.20;99.90
26051;DHT22;13825;53.496;10.020;2023-10-09T13:23:49;13.20;99.90
26051;DHT22;13825;53.496;10.020;2023-10-09T13:26:16;13.30;99.90
26051;DHT22;13825;53.496;10.020;2023-10-09T13:28:51;13.50;99.90
26051;DHT22;13825;53.496;10.020;2023-10-09T13:31:18;13.40;99.90
26051;DHT22;13825;53.496;10.020;2023-10-09T13:33:47;13.50;99.90
26051;DHT22;13825;53.496;10.020;2023-10-09T13:36:15;13.60;99.90
26051;DHT22;13825;53.496;10.020;2023-10-09T13:38:54;13.80;99.90
26051;DHT22;13825;53.496;10.020;2023-10-09T13:41:22;14.00;99.90
26051;DHT22;13825;53.496;10.020;2023-10-09T13:43:56;14.10;99.90
26051;DHT22;13825;53.496;10.020;2023-10-09T13:46:24;14.10;99.90
26051;DHT22;13825;53.496;10.020;2023-10-09T13:48:51;14.20;99.90
26051;DHT22;13825;53.496;10.020;2023-10-09T13:51:19;14.10;99.90
26051;DHT22;13825;53.496;10.020;2023-10-09T13:53:49;14.10;99.90
26051;DHT22;13825;53.496;10.020;2023-10-09T13:56:18;14.00;99.90
26051;DHT22;13825;53.496;10.020;2023-10-09T13:58:47;14.00;99.90
26051;DHT22;13825;53.496;10.020;2023-10-09T14:01:14;14.10;99.90
26051;DHT22;13825;53.496;10.020;2023-10-09T14:03:56;14.10;99.90
26051;DHT22;13825;53.496;10.020;2023-10-09T14:06:23;14.10;99.90
26051;DHT22;13825;53.496;10.020;2023-10-09T14:08:58;14.10;99.90
26051;DHT22;13825;53.496;10.020;2023-10-09T14:11:26;14.10;99.90
26051;DHT22;13825;53.496;10.020;2023-10-09T14:13:54;14.20;99.90
26051;DHT22;13825;53.496;10.020;2023-10-09T14:16:22;14.30;99.90
26051;DHT22;13825;53.496;10.020;2023-10-09T14:18:57;14.60;99.90
26051;DHT22;13825;53.496;10.020;2023-10-09T14:21:25;14.50;99.90
26051;DHT22;13825;53.496;10.020;2023-10-09T14:23:57;14.40;99.90
26051;DHT22;13825;53.496;10.020;2023-10-09T14:26:27;14.30;99.90
26051;DHT22;13825;53.496;10.020;2023-10-09T14:28:55;14.40;99.90
26051;DHT22;13825;53.496;10.020;2023-10-09T14:31:24;14.20;99.90
26051;DHT22;13825;53.496;10.020;2023-10-09T14:33:57;14.10;99.90
26051;DHT22;13825;53.496;10.020;2023-10-09T14:36:27;14.10;99.90
26051;DHT22;13825;53.496;10.020;2023-10-09T14:38:59;14.20;99.90
26051;DHT22;13825;53.496;10.020;2023-10-09T14:41:28;14.20;99.90
26051;DHT22;13825;53.496;10.020;2023-10-09T14:43:59;14.10;99.90
26051;DHT22;13825;53.496;10.020;2023-10-09T14:46:26;14.10;99.90
26051;DHT22;13825;53.496;10.020;2023-10-09T14:48:54;14.10;99.90
26051;DHT22;13825;53.496;10.020;2023-10-09T14:51:22;14.10;99.90
26051;DHT22;13825;53.496;10.020;2023-10-09T14:53:54;14.20;99.90
26051;DHT22;13825;53.496;10.020;2023-10-09T14:56:23;14.30;99.90
26051;DHT22;13825;53.496;10.020;2023-10-09T14:58:56;14.30;99.90
26051;DHT22;13825;53.496;10.020;2023-10-09T15:01:25;14.40;99.90
26051;DHT22;13825;53.496;10.020;2023-10-09T15:03:55;14.40;99.90
26051;DHT22;13825;53.496;10.020;2023-10-09T15:06:23;14.30;99.90
26051;DHT22;13825;53.496;10.020;2023-10-09T15:08:53;14.40;99.90
26051;DHT22;13825;53.496;10.020;2023-10-09T15:11:25;14.40;99.90
26051;DHT22;13825;53.496;10.020;2023-10-09T15:13:55;14.30;99.90
26051;DHT22;13825;53.496;10.020;2023-10-09T15:16:24;14.30;99.90
26051;DHT22;13825;53.496;10.020;2023-10-09T15:18:54;14.20;99.90
26051;DHT22;13825;53.496;10.020;2023-10-09T15:21:31;14.20;99.90
26051;DHT22;13825;53.496;10.020;2023-10-09T15:24:16;14.20;99.90
26051;DHT22;13825;53.496;10.020;2023-10-09T15:26:45;14.10;99.90
26051;DHT22;13825;53.496;10.020;2023-10-09T15:29:19;14.00;99.90
26051;DHT22;13825;53.496;10.020;2023-10-09T15:31:51;13.90;99.90
26051;DHT22;13825;53.496;10.020;2023-10-09T15:34:18;14.00;99.90
26051;DHT22;13825;53.496;10.020;2023-10-09T15:36:46;14.00;99.90
26051;DHT22;13825;53.496;10.020;2023-10-09T15:39:13;14.00;99.90
26051;DHT22;13825;53.496;10.020;2023-10-09T15:41:47;14.00;99.90
26051;DHT22;13825;53.496;10.020;2023-10-09T15:44:14;14.00;99.90
26051;DHT22;13825;53.496;10.020;2023-10-09T15:46:45;14.00;99.90
26051;DHT22;13825;53.496;10.020;2023-10-09T15:49:12;14.10;99.90
26051;DHT22;13825;53.496;10.020;2023-10-09T15:51:41;14.10;99.90
26051;DHT22;13825;53.496;10.020;2023-10-09T15:54:09;14.20;99.90
26051;DHT22;13825;53.496;10.020;2023-10-09T15:56:37;14.30;99.90
26051;DHT22;13825;53.496;10.020;2023-10-09T15:59:07;14.30;99.90
26051;DHT22;13825;53.496;10.020;2023-10-09T16:01:37;14.30;99.90
26051;DHT22;13825;53.496;10.020;2023-10-09T16:04:08;14.30;99.90
26051;DHT22;13825;53.496;10.020;2023-10-09T16:06:36;14.30;99.90
26051;DHT22;13825;53.496;10.020;2023-10-09T16:09:05;14.30;99.90
26051;DHT22;13825;53.496;10.020;2023-10-09T16:11:37;14.30;99.90
26051;DHT22;13825;53.496;10.020;2023-10-09T16:14:05;14.30;99.90
26051;DHT22;13825;53.496;10.020;2023-10-09T16:16:36;14.20;99.90
26051;DHT22;13825;53.496;10.020;2023-10-09T16:19:10;14.20;99.90
26051;DHT22;13825;53.496;10.020;2023-10-09T16:21:38;14.10;99.90